createdAt,value
2019-04-21T00:03:56.655Z,48.40
2019-04-21T00:09:26.080Z,49.00
2019-04-21T00:14:18.384Z,49.70
2019-04-21T00:19:24.917Z,50.10
2019-04-21T00:24:41.421Z,50.40
2019-04-21T00:29:51.841Z,50.50
2019-04-21T00:34:50.414Z,50.90
2019-04-21T00:40:13.197Z,51.10
2019-04-21T00:45:11.967Z,51.70
2019-04-21T00:50:25.713Z,52.10
2019-04-21T01:00:49.780Z,52.70
2019-04-21T01:10:52.775Z,53.20
2019-04-21T01:16:06.886Z,53.60
2019-04-21T01:20:52.960Z,54.00
2019-04-21T01:26:12.203Z,54.30
2019-04-21T01:31:25.846Z,54.60
2019-04-21T01:36:33.338Z,54.70
2019-04-21T01:41:46.236Z,55.10
2019-04-21T01:46:45.727Z,55.60
2019-04-21T01:52:15.854Z,56.00
2019-04-21T01:57:17.763Z,56.40
2019-04-21T02:02:32.544Z,56.60
2019-04-21T02:07:39.249Z,56.60
2019-04-21T02:12:46.008Z,57.00
2019-04-21T02:17:57.482Z,57.30
2019-04-21T02:28:15.795Z,58.20
2019-04-21T02:38:39.330Z,58.80
2019-04-21T02:43:42.580Z,59.10
2019-04-21T02:48:55.463Z,59.20
2019-04-21T02:54:11.915Z,59.40
2019-04-21T02:59:17.097Z,59.80
2019-04-21T03:04:34.888Z,60.10
2019-04-21T03:09:39.179Z,60.60
2019-04-21T03:30:45.005Z,61.60
2019-04-21T03:40:18.613Z,62.60
2019-04-21T03:45:42.426Z,63.00
2019-04-21T03:55:53.197Z,63.70
2019-04-21T04:01:24.056Z,63.80
2019-04-21T04:27:20.888Z,65.30
2019-04-21T04:32:24.433Z,65.70
2019-04-21T04:37:32.947Z,65.80
2019-04-21T04:47:50.768Z,66.20
2019-04-21T05:03:05.456Z,66.40
2019-04-21T05:08:28.658Z,66.40
2019-04-21T05:13:26.155Z,66.40
2019-04-21T05:18:35.110Z,66.30
2019-04-21T05:23:25.682Z,66.20
2019-04-21T05:28:31.698Z,66.20
2019-04-21T05:33:54.254Z,66.00
2019-04-21T05:39:23.420Z,65.70
2019-04-21T05:44:43.106Z,65.20
2019-04-21T05:50:01.224Z,63.30
2019-04-21T05:55:11.000Z,61.90
2019-04-21T06:00:36.490Z,61.40
2019-04-21T06:05:35.045Z,59.10
2019-04-21T06:10:34.956Z,52.70
2019-04-21T06:15:44.614Z,45.90
2019-04-21T06:20:49.211Z,39.90
2019-04-21T06:31:19.753Z,30.50
2019-04-21T06:41:31.465Z,25.40
2019-04-21T06:46:35.205Z,23.80
2019-04-21T06:51:37.134Z,22.30
2019-04-21T06:56:51.572Z,20.90
2019-04-21T07:01:56.708Z,19.70
2019-04-21T07:06:59.366Z,18.60
2019-04-21T07:12:07.482Z,17.70
2019-04-21T07:17:24.695Z,16.80
2019-04-21T07:22:32.374Z,16.20
2019-04-21T07:27:35.248Z,15.60
2019-04-21T07:32:40.135Z,14.60
2019-04-21T07:37:48.110Z,14.00
2019-04-21T07:42:53.789Z,13.80
2019-04-21T07:48:00.942Z,13.40
2019-04-21T07:53:21.156Z,13.20
2019-04-21T07:58:33.078Z,12.60
2019-04-21T08:03:34.966Z,12.80
2019-04-21T08:08:42.369Z,12.80
2019-04-21T08:13:50.306Z,12.40
2019-04-21T08:18:53.518Z,12.10
2019-04-21T08:24:00.218Z,11.60
2019-04-21T08:29:21.493Z,11.30
2019-04-21T08:34:22.628Z,10.80
2019-04-21T08:39:28.887Z,10.30
2019-04-21T08:44:43.642Z,9.60
2019-04-21T08:49:41.560Z,9.60
2019-04-21T08:54:48.133Z,9.30
2019-04-21T09:00:21.881Z,8.80
2019-04-21T09:05:25.326Z,8.60
2019-04-21T09:10:35.367Z,8.60
2019-04-21T09:15:41.910Z,8.30
2019-04-21T09:20:52.214Z,7.90
2019-04-21T09:26:00.420Z,7.60
2019-04-21T09:30:52.183Z,7.30
2019-04-21T09:35:58.806Z,7.70
2019-04-21T09:40:59.778Z,7.00
2019-04-21T09:46:06.154Z,7.20
2019-04-21T09:51:12.968Z,7.10
2019-04-21T09:56:31.211Z,7.90
2019-04-21T10:01:36.820Z,9.50
2019-04-21T10:06:34.909Z,11.00
2019-04-21T10:11:41.685Z,12.70
2019-04-21T10:17:04.856Z,14.20
2019-04-21T10:22:10.710Z,15.30
2019-04-21T10:27:19.024Z,16.50
2019-04-21T10:32:25.414Z,17.70
2019-04-21T10:37:42.861Z,18.90
2019-04-21T10:42:40.407Z,19.80
2019-04-21T10:47:47.239Z,20.30
2019-04-21T10:53:06.919Z,20.90
2019-04-21T10:58:20.283Z,20.90
2019-04-21T11:03:40.388Z,21.10
2019-04-21T11:08:50.318Z,21.50
2019-04-21T11:13:54.727Z,22.00
2019-04-21T11:19:00.455Z,21.40
2019-04-21T11:24:06.071Z,20.50
2019-04-21T11:29:12.846Z,20.20
2019-04-21T11:34:18.775Z,20.10
2019-04-21T11:39:42.202Z,20.20
2019-04-21T11:44:39.735Z,19.90
2019-04-21T11:49:45.320Z,19.70
2019-04-21T11:54:50.959Z,19.70
2019-04-21T11:59:57.581Z,19.70
2019-04-21T12:05:03.599Z,19.50
2019-04-21T12:10:09.263Z,19.90
2019-04-21T12:15:14.696Z,19.80
2019-04-21T12:20:20.909Z,19.80
2019-04-21T12:25:29.753Z,19.60
2019-04-21T12:30:35.733Z,20.10
2019-04-21T12:35:41.852Z,20.30
2019-04-21T12:40:48.558Z,20.40
2019-04-21T12:45:54.205Z,20.40
2019-04-21T12:50:59.813Z,20.00
2019-04-21T12:56:05.540Z,19.90
2019-04-21T13:01:11.089Z,19.70
2019-04-21T13:06:16.512Z,19.60
2019-04-21T13:11:23.281Z,19.50
2019-04-21T13:16:29.487Z,19.80
2019-04-21T13:21:36.125Z,20.40
2019-04-21T13:26:47.239Z,19.40
2019-04-21T13:31:49.966Z,18.70
2019-04-21T13:36:55.440Z,18.50
2019-04-21T13:42:12.280Z,18.80
2019-04-21T13:47:10.350Z,18.30
2019-04-21T13:52:16.032Z,18.10
2019-04-21T13:57:22.696Z,19.10
2019-04-21T14:02:29.007Z,18.60
2019-04-21T14:07:34.486Z,18.60
2019-04-21T14:12:40.520Z,19.10
2019-04-21T14:17:46.763Z,18.20
2019-04-21T14:22:52.423Z,17.70
2019-04-21T14:27:58.064Z,17.90
2019-04-21T14:33:04.472Z,18.80
2019-04-21T14:38:10.831Z,18.60
2019-04-21T14:43:16.535Z,18.50
2019-04-21T14:48:41.186Z,18.60
2019-04-21T14:54:05.906Z,18.70
2019-04-21T14:59:12.905Z,18.70
2019-04-21T15:04:19.365Z,18.90
2019-04-21T15:09:25.565Z,18.70
2019-04-21T15:14:31.862Z,18.50
2019-04-21T15:19:38.365Z,18.50
2019-04-21T15:24:44.526Z,18.60
2019-04-21T15:29:51.061Z,18.60
2019-04-21T15:34:56.677Z,19.00
2019-04-21T15:40:17.180Z,19.00
2019-04-21T15:45:10.527Z,18.80
2019-04-21T15:50:18.141Z,19.30
2019-04-21T15:55:41.248Z,19.10
2019-04-21T16:00:54.454Z,18.80
2019-04-21T16:06:01.409Z,18.90
2019-04-21T16:11:09.235Z,19.10
2019-04-21T16:16:14.639Z,19.20
2019-04-21T16:21:20.157Z,19.00
2019-04-21T16:26:26.760Z,19.30
2019-04-21T16:31:32.315Z,20.20
2019-04-21T16:36:38.067Z,21.20
2019-04-21T16:41:44.608Z,20.60
2019-04-21T16:46:51.643Z,20.00
2019-04-21T16:52:16.121Z,19.70
2019-04-21T16:57:35.673Z,20.10
2019-04-21T17:02:46.279Z,20.00
2019-04-21T17:07:55.719Z,20.20
2019-04-21T17:13:04.304Z,20.50
2019-04-21T17:18:33.094Z,20.70
2019-04-21T17:23:25.392Z,20.70
2019-04-21T17:28:34.368Z,20.60
2019-04-21T17:33:43.471Z,20.60
2019-04-21T17:38:52.270Z,21.50
2019-04-21T17:44:00.380Z,22.70
2019-04-21T17:49:08.559Z,23.00
2019-04-21T17:54:34.245Z,23.10
2019-04-21T18:05:02.311Z,23.70
2019-04-21T18:10:15.978Z,23.80
2019-04-21T18:15:10.236Z,24.00
2019-04-21T18:20:01.820Z,24.10
2019-04-21T18:25:20.252Z,24.20
2019-04-21T18:30:46.590Z,24.70
2019-04-21T18:36:30.284Z,25.70
2019-04-21T18:41:34.498Z,26.40
2019-04-21T18:47:10.626Z,27.10
2019-04-21T18:52:06.819Z,27.80
2019-04-21T18:57:17.493Z,28.50
2019-04-21T19:02:17.501Z,29.10
2019-04-21T19:07:37.891Z,29.50
2019-04-21T19:13:09.164Z,30.00
2019-04-21T19:22:57.053Z,30.90
2019-04-21T19:28:12.131Z,31.20
2019-04-21T19:33:14.070Z,31.50
2019-04-21T19:38:10.105Z,32.10
2019-04-21T19:43:35.661Z,32.60
2019-04-21T19:48:45.021Z,33.10
2019-04-21T19:53:41.676Z,33.40
2019-04-21T19:58:39.114Z,33.90
2019-04-21T20:03:43.158Z,34.00
2019-04-21T20:09:09.619Z,34.30
2019-04-21T20:14:45.043Z,34.50
2019-04-21T20:19:08.513Z,34.70
2019-04-21T20:24:16.088Z,35.00
2019-04-21T20:29:38.970Z,35.30
2019-04-21T20:34:46.139Z,35.80
2019-04-21T20:39:42.852Z,36.30
2019-04-21T20:45:16.169Z,36.90
2019-04-21T20:50:03.357Z,37.40
2019-04-21T20:55:04.875Z,38.30
2019-04-21T21:00:19.287Z,39.00
2019-04-21T21:05:23.069Z,39.60
2019-04-21T21:10:34.713Z,40.30
2019-04-21T21:15:35.924Z,41.00
2019-04-21T21:20:49.692Z,41.80
2019-04-21T21:25:57.226Z,42.50
2019-04-21T21:31:04.289Z,43.10
2019-04-21T21:36:10.709Z,43.70
2019-04-21T21:41:13.280Z,44.40
2019-04-21T21:46:26.367Z,45.10
2019-04-21T21:51:21.388Z,45.80
2019-04-21T21:56:22.598Z,46.30
2019-04-21T22:01:35.778Z,46.90
2019-04-21T22:06:43.371Z,47.50
2019-04-21T22:11:44.260Z,48.20
2019-04-21T22:17:07.711Z,48.70
2019-04-21T22:22:13.984Z,49.30
2019-04-21T22:27:05.376Z,49.70
2019-04-21T22:32:17.363Z,50.00
2019-04-21T22:37:36.765Z,49.90
2019-04-21T22:42:30.579Z,48.60
2019-04-21T22:47:35.788Z,47.40
2019-04-21T22:52:39.697Z,47.20
2019-04-21T22:57:49.850Z,46.40
2019-04-21T23:02:56.117Z,45.50
2019-04-21T23:08:03.746Z,44.70
2019-04-21T23:13:13.366Z,44.10
2019-04-21T23:18:30.722Z,43.60
2019-04-21T23:23:44.219Z,42.80
2019-04-21T23:28:50.779Z,42.30
2019-04-21T23:33:37.015Z,41.90
2019-04-21T23:38:47.265Z,41.60
2019-04-21T23:43:53.102Z,41.30
2019-04-21T23:49:12.454Z,41.10
2019-04-21T23:54:05.073Z,41.00
2019-04-21T23:59:14.277Z,40.90
